Time;durP1;ratioP1;P1;durP2;ratioP2;P2;SDS_P1;SDS_P2;PMS_P1;PMS_P2;Temp;Humidity;BMP_temperature;BMP_pressure;BME280_temperature;BME280_humidity;BME280_pressure;Samples;Min_cycle;Max_cycle;Signal;HPM_P1;HPM_P2
2021/04/28 00:02:20;;;;;;;3.97;1.30;;;14.40;45.40;;;;;;5010472;28;20041;-77
2021/04/28 00:04:46;;;;;;;4.13;1.83;;;14.40;45.50;;;;;;5008479;28;20306;-77
2021/04/28 00:07:12;;;;;;;3.95;1.73;;;14.40;45.50;;;;;;5010662;28;20052;-77
2021/04/28 00:09:38;;;;;;;3.22;1.65;;;14.40;45.50;;;;;;5012276;28;20029;-77
2021/04/28 00:12:05;;;;;;;5.90;2.08;;;14.40;45.50;;;;;;5010997;28;20042;-77
2021/04/28 00:14:31;;;;;;;4.93;1.08;;;14.40;45.50;;;;;;5011133;28;20494;-77
2021/04/28 00:16:57;;;;;;;7.88;2.05;;;14.40;45.50;;;;;;5009080;28;20044;-77
2021/04/28 00:19:24;;;;;;;9.32;1.20;;;14.40;45.60;;;;;;5010834;28;20037;-78
2021/04/28 00:21:50;;;;;;;2.95;1.42;;;14.40;45.70;;;;;;4994706;28;20049;-77
2021/04/28 00:24:16;;;;;;;5.38;1.15;;;14.40;45.70;;;;;;4987321;28;20407;-77
2021/04/28 00:26:42;;;;;;;4.03;1.95;;;14.40;45.80;;;;;;4993367;28;20042;-77
2021/04/28 00:29:08;;;;;;;6.18;1.27;;;14.40;45.90;;;;;;5011853;28;20041;-77
2021/04/28 00:31:35;;;;;;;3.33;1.35;;;14.30;45.90;;;;;;5008882;28;20037;-77
2021/04/28 00:34:01;;;;;;;10.23;1.58;;;14.30;46.00;;;;;;5010002;28;20640;-77
2021/04/28 00:36:27;;;;;;;2.28;1.05;;;14.30;46.10;;;;;;5009929;28;20030;-76
2021/04/28 00:38:53;;;;;;;3.50;1.52;;;14.20;46.10;;;;;;4986230;28;20426;-77
2021/04/28 00:41:19;;;;;;;3.15;1.75;;;14.20;46.10;;;;;;5011953;28;20364;-77
2021/04/28 00:43:46;;;;;;;11.45;1.90;;;14.20;46.20;;;;;;5010898;28;20030;-78
2021/04/28 00:46:12;;;;;;;2.67;1.20;;;14.20;46.40;;;;;;4973497;28;20041;-77
2021/04/28 00:48:38;;;;;;;4.70;1.88;;;14.20;46.40;;;;;;5010572;28;20035;-77
2021/04/28 00:51:04;;;;;;;4.40;1.83;;;14.20;46.40;;;;;;4992386;28;20086;-77
2021/04/28 00:53:30;;;;;;;4.32;1.77;;;14.20;46.40;;;;;;5012224;28;20493;-77
2021/04/28 00:55:57;;;;;;;4.40;1.27;;;14.20;46.40;;;;;;5011180;28;20042;-77
2021/04/28 00:58:24;;;;;;;2.78;1.38;;;14.20;46.50;;;;;;5010122;28;20037;-77
2021/04/28 01:00:50;;;;;;;6.28;2.17;;;14.20;46.60;;;;;;5008521;28;20026;-77
2021/04/28 01:03:26;;;;;;;5.32;1.70;;;14.10;46.50;;;;;;5008017;28;20049;-77
2021/04/28 01:05:53;;;;;;;4.32;1.73;;;14.10;46.70;;;;;;4977040;28;20037;-77
2021/04/28 01:08:19;;;;;;;3.75;1.77;;;14.00;46.70;;;;;;5004549;28;20030;-77
2021/04/28 01:10:45;;;;;;;6.00;1.38;;;14.00;46.80;;;;;;5010040;28;20030;-77
2021/04/28 01:13:11;;;;;;;3.28;1.40;;;14.00;46.80;;;;;;5009174;28;20458;-77
2021/04/28 01:15:38;;;;;;;3.78;0.98;;;14.00;46.90;;;;;;5008373;28;20037;-77
2021/04/28 01:18:04;;;;;;;4.22;1.48;;;13.90;47.00;;;;;;4991163;28;20038;-77
2021/04/28 01:20:32;;;;;;;3.90;1.13;;;13.90;47.10;;;;;;5009958;28;20033;-77
2021/04/28 01:22:58;;;;;;;4.72;1.77;;;13.80;47.20;;;;;;5010864;28;20037;-77
2021/04/28 01:25:25;;;;;;;3.30;1.30;;;13.80;47.30;;;;;;5007377;28;20021;-77
2021/04/28 01:28:07;;;;;;;2.28;1.08;;;13.70;47.30;;;;;;5008745;28;20375;-77
2021/04/28 01:30:39;;;;;;;3.60;1.20;;;13.70;47.50;;;;;;5002925;28;20060;-77
2021/04/28 01:33:07;;;;;;;4.55;1.75;;;13.70;47.50;;;;;;4989551;28;20046;-77
2021/04/28 01:35:33;;;;;;;3.22;1.40;;;13.60;47.50;;;;;;5009229;28;20398;-77
2021/04/28 01:37:59;;;;;;;2.72;1.02;;;13.60;47.60;;;;;;5020571;28;20042;-77
2021/04/28 01:40:26;;;;;;;3.17;1.75;;;13.50;47.70;;;;;;5020502;28;20454;-77
2021/04/28 01:42:52;;;;;;;3.50;1.67;;;13.50;47.80;;;;;;5008907;28;20364;-77
2021/04/28 01:45:18;;;;;;;13.48;1.73;;;13.50;47.90;;;;;;5008063;28;20050;-77
2021/04/28 01:47:44;;;;;;;4.07;1.23;;;13.40;47.90;;;;;;5008217;28;20039;-77
2021/04/28 01:50:11;;;;;;;3.40;1.67;;;13.40;47.90;;;;;;5011633;28;20044;-78
2021/04/28 01:52:37;;;;;;;3.90;1.63;;;13.40;48.10;;;;;;5008829;28;20045;-77
2021/04/28 01:55:05;;;;;;;2.38;1.15;;;13.40;48.10;;;;;;5007958;28;20033;-77
2021/04/28 01:57:31;;;;;;;4.50;1.17;;;13.30;48.20;;;;;;5002283;28;20038;-77
2021/04/28 01:59:57;;;;;;;3.38;1.80;;;13.20;48.20;;;;;;4990509;28;20471;-77
2021/04/28 02:02:23;;;;;;;2.63;0.80;;;13.20;48.30;;;;;;4988642;28;20053;-77
2021/04/28 02:04:49;;;;;;;3.95;1.38;;;13.20;48.40;;;;;;4984564;28;20392;-76
2021/04/28 02:07:15;;;;;;;2.15;1.52;;;13.20;48.50;;;;;;4985603;28;20050;-76
2021/04/28 02:09:42;;;;;;;5.65;1.75;;;13.10;48.50;;;;;;5005906;28;20364;-75
2021/04/28 02:12:11;;;;;;;3.28;1.50;;;13.10;48.60;;;;;;5007046;28;20037;-77
2021/04/28 02:14:37;;;;;;;3.22;1.10;;;13.10;48.60;;;;;;5002559;28;20045;-76
2021/04/28 02:17:03;;;;;;;3.90;1.92;;;13.00;48.60;;;;;;5005329;28;20034;-76
2021/04/28 02:19:29;;;;;;;2.65;1.45;;;13.00;48.70;;;;;;4990194;28;20037;-78
2021/04/28 02:21:55;;;;;;;3.28;1.27;;;13.00;48.80;;;;;;4991173;28;20034;-78
2021/04/28 02:24:21;;;;;;;7.32;2.05;;;12.90;48.80;;;;;;5005063;28;20030;-78
2021/04/28 02:26:48;;;;;;;5.28;2.17;;;12.90;48.90;;;;;;5001786;28;20509;-78
2021/04/28 02:29:14;;;;;;;4.78;1.63;;;12.90;49.00;;;;;;4998774;28;20053;-77
2021/04/28 02:31:40;;;;;;;4.65;1.42;;;12.80;49.10;;;;;;4999779;28;20026;-78
2021/04/28 02:34:07;;;;;;;2.08;1.10;;;12.80;49.20;;;;;;5006795;28;20048;-76
2021/04/28 02:36:44;;;;;;;4.85;2.00;;;12.70;49.20;;;;;;5007772;28;20034;-77
2021/04/28 02:39:11;;;;;;;4.63;1.75;;;12.70;49.30;;;;;;5008658;28;20033;-78
2021/04/28 02:41:42;;;;;;;4.70;0.93;;;12.60;49.30;;;;;;5008595;28;20045;-77
2021/04/28 02:44:10;;;;;;;5.22;1.48;;;12.60;49.40;;;;;;5009690;28;20038;-79
2021/04/28 02:46:36;;;;;;;5.20;1.50;;;12.60;49.50;;;;;;5008579;28;20038;-78
2021/04/28 02:49:02;;;;;;;2.97;1.85;;;12.60;49.60;;;;;;4995200;28;20040;-77
2021/04/28 02:51:29;;;;;;;5.93;1.27;;;12.50;49.60;;;;;;5012633;28;20026;-78
2021/04/28 02:53:55;;;;;;;4.50;2.05;;;12.50;49.70;;;;;;5012034;28;20042;-78
2021/04/28 02:56:21;;;;;;;3.92;1.33;;;12.40;49.80;;;;;;5013371;28;20033;-78
2021/04/28 02:58:47;;;;;;;2.08;1.48;;;12.40;49.90;;;;;;5009172;28;20039;-78
2021/04/28 03:01:13;;;;;;;6.03;1.67;;;12.30;50.10;;;;;;5010957;28;20486;-78
2021/04/28 03:03:40;;;;;;;2.47;1.10;;;12.30;50.10;;;;;;4993249;28;20348;-78
2021/04/28 03:06:06;;;;;;;6.20;1.85;;;12.20;50.10;;;;;;5009444;28;20047;-78
2021/04/28 03:08:32;;;;;;;6.15;2.08;;;12.20;50.20;;;;;;5011928;28;20041;-78
2021/04/28 03:10:59;;;;;;;3.30;1.55;;;12.20;50.20;;;;;;4998340;28;20039;-78
2021/04/28 03:13:25;;;;;;;7.22;1.83;;;12.20;50.30;;;;;;5007694;28;20042;-78
2021/04/28 03:15:51;;;;;;;4.18;1.73;;;12.20;50.20;;;;;;5010888;28;20037;-78
2021/04/28 03:18:17;;;;;;;3.28;1.83;;;12.20;50.30;;;;;;5009646;28;20038;-78
2021/04/28 03:20:45;;;;;;;2.22;1.55;;;12.20;50.20;;;;;;5009141;28;20050;-78
2021/04/28 03:23:12;;;;;;;7.57;2.17;;;12.20;50.60;;;;;;5012489;28;20042;-78
2021/04/28 03:25:40;;;;;;;4.53;1.67;;;12.20;50.20;;;;;;4993511;28;20033;-79
2021/04/28 03:28:06;;;;;;;3.90;1.42;;;12.20;50.30;;;;;;5010350;28;20042;-78
2021/04/28 03:30:32;;;;;;;4.03;1.40;;;12.20;50.20;;;;;;5010403;28;20065;-78
2021/04/28 03:32:58;;;;;;;2.88;1.58;;;12.20;50.30;;;;;;5010545;28;20050;-77
2021/04/28 03:35:24;;;;;;;6.63;1.83;;;12.20;50.30;;;;;;5011102;28;20044;-78
2021/04/28 03:37:51;;;;;;;2.45;1.00;;;12.20;50.40;;;;;;5004713;28;20046;-79
2021/04/28 03:40:17;;;;;;;5.20;2.00;;;12.20;50.40;;;;;;4992680;28;20042;-79
2021/04/28 03:42:43;;;;;;;4.00;0.98;;;12.20;50.40;;;;;;5011208;28;20042;-79
2021/04/28 03:45:10;;;;;;;1.90;1.13;;;12.20;50.40;;;;;;4992877;28;20053;-79
2021/04/28 03:47:36;;;;;;;4.72;2.03;;;12.10;50.40;;;;;;5011498;28;20030;-80
2021/04/28 03:50:03;;;;;;;4.07;1.40;;;12.10;50.50;;;;;;5011146;28;20033;-78
2021/04/28 03:52:29;;;;;;;4.47;1.33;;;12.10;50.50;;;;;;5011936;28;20030;-79
2021/04/28 03:54:55;;;;;;;4.55;1.95;;;12.00;50.60;;;;;;5009985;28;20402;-78
2021/04/28 03:57:21;;;;;;;6.18;1.65;;;12.00;50.60;;;;;;5009825;28;20029;-78
2021/04/28 03:59:47;;;;;;;5.20;2.22;;;12.00;50.60;;;;;;5010440;28;20030;-78
2021/04/28 04:02:13;;;;;;;4.20;1.08;;;12.00;50.70;;;;;;5010828;28;20042;-78
2021/04/28 04:04:39;;;;;;;2.05;1.08;;;12.00;50.80;;;;;;4989357;28;20049;-81
2021/04/28 04:07:05;;;;;;;6.57;1.20;;;11.90;50.80;;;;;;5008345;28;20403;-78
2021/04/28 04:09:31;;;;;;;7.30;1.83;;;11.90;50.80;;;;;;5011667;28;20030;-79
2021/04/28 04:11:57;;;;;;;12.68;1.67;;;11.90;50.90;;;;;;5011050;28;20513;-78
2021/04/28 04:14:24;;;;;;;5.57;1.35;;;11.80;50.90;;;;;;4992849;28;20057;-78
2021/04/28 04:16:51;;;;;;;2.63;1.63;;;11.80;50.90;;;;;;5011108;28;20026;-78
2021/04/28 04:19:17;;;;;;;1.23;0.55;;;11.80;51.00;;;;;;4992432;28;20050;-79
2021/04/28 04:21:43;;;;;;;4.13;1.73;;;11.80;51.00;;;;;;5011197;28;20037;-78
2021/04/28 04:24:09;;;;;;;2.17;1.02;;;11.80;51.00;;;;;;5010083;28;20034;-79
2021/04/28 04:26:36;;;;;;;7.35;1.40;;;11.80;51.00;;;;;;5011764;28;20106;-78
2021/04/28 04:29:03;;;;;;;3.90;1.70;;;11.70;51.00;;;;;;5029237;28;20045;-78
2021/04/28 04:31:29;;;;;;;3.10;1.17;;;11.80;51.10;;;;;;5006878;28;20034;-78
2021/04/28 04:33:55;;;;;;;5.88;2.05;;;11.70;51.10;;;;;;5009318;28;20046;-78
2021/04/28 04:36:21;;;;;;;4.78;1.52;;;11.70;51.10;;;;;;5010382;28;20026;-78
2021/04/28 04:38:47;;;;;;;2.30;1.15;;;11.70;51.10;;;;;;5011055;28;20487;-78
2021/04/28 04:41:13;;;;;;;1.73;1.42;;;11.70;51.10;;;;;;5011916;28;20029;-79
2021/04/28 04:43:41;;;;;;;3.75;1.58;;;11.70;51.20;;;;;;5010593;28;20029;-77
2021/04/28 04:46:07;;;;;;;6.78;1.52;;;11.60;51.20;;;;;;4993412;28;20499;-77
2021/04/28 04:48:33;;;;;;;3.05;1.83;;;11.70;51.30;;;;;;5009627;28;20040;-77
2021/04/28 04:51:01;;;;;;;13.10;1.88;;;11.60;51.20;;;;;;5010016;28;20041;-78
2021/04/28 04:53:27;;;;;;;3.78;1.73;;;11.60;51.30;;;;;;5011095;28;20045;-78
2021/04/28 04:55:53;;;;;;;5.15;1.27;;;11.60;51.30;;;;;;5011033;28;20037;-78
2021/04/28 04:58:19;;;;;;;5.28;1.85;;;11.60;51.30;;;;;;4992193;28;20037;-76
2021/04/28 05:00:45;;;;;;;3.67;1.27;;;11.60;51.40;;;;;;5010378;28;20034;-76
2021/04/28 05:03:11;;;;;;;5.82;1.48;;;11.60;51.40;;;;;;5008799;28;20041;-78
2021/04/28 05:05:37;;;;;;;1.33;0.52;;;11.60;51.40;;;;;;5010399;28;20022;-77
2021/04/28 05:08:04;;;;;;;3.03;1.15;;;11.50;51.40;;;;;;5028189;28;20373;-77
2021/04/28 05:10:30;;;;;;;2.92;1.63;;;11.50;51.50;;;;;;5010091;28;20395;-77
2021/04/28 05:12:56;;;;;;;3.97;1.35;;;11.50;52.20;;;;;;5009549;28;20034;-77
2021/04/28 05:15:22;;;;;;;6.60;1.52;;;11.50;51.60;;;;;;5008550;28;20046;-76
2021/04/28 05:17:48;;;;;;;2.15;1.20;;;11.50;51.60;;;;;;5009048;28;20061;-77
2021/04/28 05:20:14;;;;;;;4.13;2.42;;;11.50;51.60;;;;;;5011245;28;20045;-77
2021/04/28 05:22:41;;;;;;;2.05;0.65;;;11.50;51.70;;;;;;4993904;28;20487;-78
2021/04/28 05:25:07;;;;;;;6.50;1.48;;;11.40;51.60;;;;;;4991237;28;20038;-76
2021/04/28 05:27:33;;;;;;;2.35;0.98;;;11.40;51.60;;;;;;5009704;28;20502;-77
2021/04/28 05:30:00;;;;;;;7.55;1.52;;;11.40;51.60;;;;;;5006860;28;20042;-76
2021/04/28 05:32:26;;;;;;;3.38;0.98;;;11.50;51.60;;;;;;4993831;28;20050;-76
2021/04/28 05:34:55;;;;;;;3.60;1.42;;;11.50;51.60;;;;;;5007976;28;20060;-76
2021/04/28 05:37:22;;;;;;;4.05;1.77;;;11.60;51.60;;;;;;4992189;28;20030;-77
2021/04/28 05:39:48;;;;;;;8.10;1.55;;;11.70;51.50;;;;;;4993530;28;20403;-77
2021/04/28 05:42:15;;;;;;;10.00;1.05;;;11.80;51.30;;;;;;4993474;28;20061;-77
2021/04/28 05:44:42;;;;;;;4.90;1.25;;;12.00;51.10;;;;;;5010046;28;20042;-77
2021/04/28 05:47:08;;;;;;;3.53;1.20;;;12.20;50.80;;;;;;5005472;28;20038;-77
2021/04/28 05:49:34;;;;;;;4.43;1.65;;;12.30;50.60;;;;;;5031128;28;20034;-78
2021/04/28 05:52:00;;;;;;;2.75;1.27;;;12.40;50.60;;;;;;5039924;28;20032;-76
2021/04/28 05:54:27;;;;;;;1.98;0.47;;;12.40;50.60;;;;;;5006449;28;20046;-76
2021/04/28 05:56:56;;;;;;;3.97;1.60;;;12.40;50.70;;;;;;5009781;28;20460;-77
2021/04/28 05:59:22;;;;;;;3.65;1.30;;;12.40;50.70;;;;;;5006626;28;20045;-77
2021/04/28 06:01:48;;;;;;;2.40;1.17;;;12.40;50.80;;;;;;5007367;28;20048;-77
2021/04/28 06:04:15;;;;;;;4.55;1.65;;;12.40;50.90;;;;;;5009304;28;20030;-77
2021/04/28 06:06:42;;;;;;;5.63;1.92;;;12.40;50.90;;;;;;5008188;28;20478;-77
2021/04/28 06:09:08;;;;;;;6.78;1.20;;;12.50;50.80;;;;;;4997543;28;20046;-77
2021/04/28 06:11:34;;;;;;;2.80;0.88;;;12.70;50.50;;;;;;5008148;28;20041;-76
2021/04/28 06:14:00;;;;;;;3.95;1.40;;;13.00;50.30;;;;;;5029668;28;20488;-77
2021/04/28 06:16:27;;;;;;;2.95;0.93;;;13.30;50.00;;;;;;5008759;28;20037;-80
2021/04/28 06:18:53;;;;;;;4.82;1.15;;;13.50;49.70;;;;;;4991187;28;20051;-77
2021/04/28 06:21:19;;;;;;;6.90;1.15;;;13.70;49.40;;;;;;5008711;28;20045;-79
2021/04/28 06:23:45;;;;;;;3.72;1.48;;;13.90;49.20;;;;;;4995015;28;20045;-79
2021/04/28 06:26:11;;;;;;;3.67;1.42;;;14.00;49.00;;;;;;5030192;28;20030;-78
2021/04/28 06:28:37;;;;;;;2.53;1.42;;;14.20;48.90;;;;;;4987762;28;20487;-78
2021/04/28 06:31:03;;;;;;;2.78;1.42;;;14.40;48.80;;;;;;5021635;28;20034;-80
2021/04/28 06:33:29;;;;;;;10.02;2.03;;;14.60;48.60;;;;;;4990883;28;20026;-79
2021/04/28 06:35:56;;;;;;;5.07;1.60;;;14.80;48.40;;;;;;5006158;28;20034;-81
2021/04/28 06:38:22;;;;;;;5.43;1.23;;;14.90;48.20;;;;;;5035118;28;20397;-81
2021/04/28 06:40:48;;;;;;;2.95;1.40;;;15.00;48.10;;;;;;5015612;28;20036;-79
2021/04/28 06:43:14;;;;;;;2.53;1.25;;;15.20;48.10;;;;;;4991434;28;20499;-79
2021/04/28 06:45:43;;;;;;;6.78;1.70;;;15.20;48.60;;;;;;5006664;28;20042;-79
2021/04/28 06:48:09;;;;;;;6.80;1.42;;;15.30;48.60;;;;;;5011547;28;20037;-78
2021/04/28 06:50:35;;;;;;;4.22;1.23;;;15.40;47.90;;;;;;5020912;28;20053;-80
2021/04/28 06:53:01;;;;;;;2.13;0.95;;;15.40;47.90;;;;;;5007631;28;20038;-81
2021/04/28 06:55:27;;;;;;;3.97;1.67;;;15.60;47.70;;;;;;5019075;28;20045;-79
2021/04/28 06:57:57;;;;;;;3.55;1.15;;;15.70;48.20;;;;;;5005524;28;20065;-80
2021/04/28 07:00:24;;;;;;;5.20;1.55;;;15.80;47.50;;;;;;5011666;28;20037;-79
2021/04/28 07:02:50;;;;;;;4.38;1.67;;;15.70;47.60;;;;;;5045908;28;20033;-78
2021/04/28 07:05:17;;;;;;;3.85;1.35;;;15.80;47.60;;;;;;5021570;28;20038;-79
2021/04/28 07:07:43;;;;;;;6.28;2.00;;;16.00;47.40;;;;;;5004257;28;20034;-81
2021/04/28 07:10:09;;;;;;;14.88;1.63;;;16.20;47.20;;;;;;5007152;28;20037;-77
2021/04/28 07:12:36;;;;;;;9.30;1.85;;;16.30;46.90;;;;;;4993401;28;20046;-78
2021/04/28 07:15:03;;;;;;;4.82;1.42;;;16.50;46.80;;;;;;4976182;28;20061;-77
2021/04/28 07:17:29;;;;;;;6.93;1.60;;;16.70;46.60;;;;;;5013797;28;20044;-80
2021/04/28 07:19:55;;;;;;;3.75;1.40;;;16.90;46.30;;;;;;5028339;28;20042;-80
2021/04/28 07:22:21;;;;;;;4.65;1.13;;;17.00;46.10;;;;;;5032047;28;20042;-80
2021/04/28 07:24:49;;;;;;;2.15;1.08;;;16.90;46.10;;;;;;5012284;28;20038;-77
2021/04/28 07:27:15;;;;;;;5.15;0.98;;;16.90;46.20;;;;;;5009549;28;20029;-78
2021/04/28 07:29:41;;;;;;;3.70;1.13;;;17.00;46.20;;;;;;5011226;28;20034;-78
2021/04/28 07:32:07;;;;;;;3.60;1.85;;;16.90;46.10;;;;;;4997704;28;20034;-79
2021/04/28 07:34:34;;;;;;;9.20;1.45;;;16.90;46.20;;;;;;5010362;28;20048;-77
2021/04/28 07:37:00;;;;;;;4.18;1.73;;;16.90;46.20;;;;;;5010490;28;20487;-77
2021/04/28 07:39:26;;;;;;;6.45;1.50;;;17.10;46.10;;;;;;5011330;28;20053;-77
2021/04/28 07:41:52;;;;;;;3.97;1.15;;;17.20;45.90;;;;;;5002246;28;20030;-78
2021/04/28 07:44:18;;;;;;;3.83;1.25;;;17.30;45.70;;;;;;5013243;28;20053;-77
2021/04/28 07:46:44;;;;;;;1.63;0.85;;;17.30;45.70;;;;;;5011111;28;20034;-79
2021/04/28 07:49:10;;;;;;;9.18;1.65;;;17.50;45.40;;;;;;5009247;28;20050;-81
2021/04/28 07:51:36;;;;;;;7.38;2.42;;;17.60;45.20;;;;;;4994525;28;20413;-78
2021/04/28 07:54:03;;;;;;;4.68;1.52;;;17.70;45.10;;;;;;5010436;28;20491;-81
2021/04/28 07:56:29;;;;;;;2.17;0.57;;;17.70;45.10;;;;;;5012172;28;20487;-79
2021/04/28 07:58:56;;;;;;;3.40;1.17;;;17.70;45.10;;;;;;5012299;28;20041;-80
2021/04/28 08:01:22;;;;;;;2.60;0.93;;;17.70;45.10;;;;;;4973628;28;20045;-77
2021/04/28 08:03:48;;;;;;;6.53;1.48;;;17.70;45.10;;;;;;5011449;28;20392;-77
2021/04/28 08:06:14;;;;;;;2.65;0.82;;;17.90;44.90;;;;;;5009914;28;20036;-78
2021/04/28 08:08:40;;;;;;;2.90;1.02;;;18.20;44.50;;;;;;5010459;28;20462;-80
2021/04/28 08:11:06;;;;;;;2.90;1.00;;;18.50;44.20;;;;;;5010990;28;20049;-80
2021/04/28 08:13:32;;;;;;;4.68;1.67;;;18.70;43.80;;;;;;5006860;28;20038;-79
2021/04/28 08:16:00;;;;;;;4.65;1.27;;;18.80;43.60;;;;;;5008574;28;20502;-78
2021/04/28 08:18:26;;;;;;;3.35;1.35;;;18.60;43.60;;;;;;4978727;28;20034;-76
2021/04/28 08:20:54;;;;;;;3.65;1.05;;;18.60;43.70;;;;;;5011532;28;20055;-76
2021/04/28 08:23:21;;;;;;;4.97;1.23;;;18.40;43.80;;;;;;5013114;28;20383;-79
2021/04/28 08:25:47;;;;;;;3.05;1.40;;;18.40;43.90;;;;;;5008790;28;20037;-78
2021/04/28 08:28:13;;;;;;;3.05;0.93;;;18.50;43.90;;;;;;5008947;28;20041;-77
2021/04/28 08:30:39;;;;;;;2.58;1.05;;;18.70;43.60;;;;;;4990871;28;20040;-77
2021/04/28 08:33:06;;;;;;;3.25;1.00;;;18.90;43.30;;;;;;5011322;28;20378;-76
2021/04/28 08:35:32;;;;;;;2.78;1.10;;;18.90;43.00;;;;;;5011277;28;20395;-78
2021/04/28 08:37:58;;;;;;;4.85;1.27;;;18.80;43.10;;;;;;5011386;28;20030;-79
2021/04/28 08:40:25;;;;;;;4.40;1.25;;;18.70;43.20;;;;;;5008092;28;20041;-82
2021/04/28 08:42:51;;;;;;;4.78;1.45;;;18.80;43.30;;;;;;5011427;28;20033;-78
2021/04/28 08:45:17;;;;;;;4.15;1.02;;;18.90;43.10;;;;;;5010226;28;20041;-77
2021/04/28 08:47:43;;;;;;;4.72;1.15;;;19.00;43.00;;;;;;5009217;28;20026;-78
2021/04/28 08:50:10;;;;;;;2.88;1.17;;;19.30;42.90;;;;;;5017461;28;20045;-77
2021/04/28 08:52:36;;;;;;;3.55;1.05;;;19.60;42.50;;;;;;5008440;28;20590;-76
2021/04/28 08:55:04;;;;;;;1.13;0.77;;;19.80;42.20;;;;;;5010180;28;20384;-79
2021/04/28 08:57:30;;;;;;;2.33;1.35;;;20.00;42.10;;;;;;5009596;28;20042;-82
2021/04/28 08:59:56;;;;;;;5.63;1.00;;;20.10;42.60;;;;;;5009940;28;20034;-80
2021/04/28 09:02:24;;;;;;;4.28;0.90;;;20.30;41.90;;;;;;5010148;28;20034;-78
2021/04/28 09:05:07;;;;;;;3.17;1.23;;;20.50;41.70;;;;;;5008367;28;20383;-78
2021/04/28 09:07:33;;;;;;;2.80;0.55;;;20.50;41.60;;;;;;5006817;28;20040;-78
2021/04/28 09:10:07;;;;;;;3.97;1.38;;;20.30;41.70;;;;;;4977150;28;20050;-77
2021/04/28 09:12:34;;;;;;;2.17;0.75;;;20.10;42.00;;;;;;5008742;28;20044;-81
2021/04/28 09:15:00;;;;;;;10.20;0.73;;;20.10;42.20;;;;;;5009050;28;20034;-81
2021/04/28 09:17:26;;;;;;;1.70;0.52;;;20.30;42.10;;;;;;5009965;28;20034;-82
2021/04/28 09:20:16;;;;;;;1.80;0.85;;;20.40;41.90;;;;;;5029358;28;20057;-82
2021/04/28 09:22:50;;;;;;;6.72;1.00;;;20.50;41.70;;;;;;5009065;28;20030;-82
2021/04/28 09:25:33;;;;;;;5.80;1.20;;;20.60;42.10;;;;;;5009762;28;20042;-82
2021/04/28 09:28:22;;;;;;;1.33;0.30;;;20.60;41.50;;;;;;5009972;28;20022;-78
2021/04/28 09:30:49;;;;;;;3.58;1.17;;;20.70;41.20;;;;;;5007768;28;20026;-78
2021/04/28 09:33:18;;;;;;;1.17;0.40;;;20.70;41.10;;;;;;5010133;28;20510;-77
2021/04/28 09:35:45;;;;;;;6.85;1.10;;;20.80;41.00;;;;;;5008844;28;20077;-80
2021/04/28 09:38:11;;;;;;;2.42;0.93;;;20.80;40.80;;;;;;5010035;28;20030;-78
2021/04/28 09:40:48;;;;;;;3.33;0.88;;;20.80;40.80;;;;;;4992266;28;20028;-78
2021/04/28 09:43:15;;;;;;;1.85;0.43;;;21.10;40.70;;;;;;4988378;28;20030;-80
2021/04/28 09:45:46;;;;;;;4.00;1.23;;;21.30;40.40;;;;;;5009270;28;20046;-81
2021/04/28 09:48:18;;;;;;;;;;;21.30;40.00;;;;;;5009454;28;20037;-80
2021/04/28 09:50:45;;;;;;;2.72;0.70;;;21.20;40.00;;;;;;5009956;28;19918;-78
2021/04/28 09:53:27;;;;;;;1.73;0.80;;;21.10;40.10;;;;;;5010089;28;20038;-77
2021/04/28 09:55:54;;;;;;;3.20;0.57;;;21.30;40.00;;;;;;5010448;28;20034;-81
2021/04/28 09:58:45;;;;;;;1.15;0.47;;;21.50;39.70;;;;;;5008577;28;20034;-78
2021/04/28 10:01:13;;;;;;;1.88;0.75;;;21.80;39.40;;;;;;5005304;28;20049;-78
2021/04/28 10:03:49;;;;;;;1.42;0.22;;;22.10;39.00;;;;;;5011124;28;20018;-78
2021/04/28 10:06:38;;;;;;;4.50;0.98;;;22.20;38.70;;;;;;4995694;28;20042;-79
2021/04/28 10:09:22;;;;;;;2.28;0.52;;;22.20;38.40;;;;;;5029578;28;20034;-83
2021/04/28 10:11:48;;;;;;;1.45;0.43;;;22.00;38.70;;;;;;5012736;28;20030;-85
2021/04/28 10:14:14;;;;;;;1.85;0.50;;;22.00;39.40;;;;;;5034008;28;20050;-78
2021/04/28 10:16:41;;;;;;;1.23;0.20;;;22.30;38.60;;;;;;4993772;28;20029;-80
2021/04/28 10:19:07;;;;;;;2.38;0.85;;;22.50;38.80;;;;;;4995187;28;20375;-88
2021/04/28 10:21:33;;;;;;;1.02;0.38;;;22.50;37.80;;;;;;4975356;28;20038;-85
2021/04/28 10:23:59;;;;;;;1.23;0.30;;;22.40;38.00;;;;;;4994974;28;20026;-82
2021/04/28 10:26:25;;;;;;;1.60;0.52;;;22.20;38.20;;;;;;4997207;28;20066;-80
2021/04/28 10:28:52;;;;;;;7.20;1.00;;;22.20;38.30;;;;;;4996255;28;20030;-81
2021/04/28 10:31:18;;;;;;;1.58;0.68;;;22.10;38.10;;;;;;5034765;28;20061;-81
2021/04/28 10:33:44;;;;;;;4.75;1.42;;;22.10;38.40;;;;;;4994050;28;20026;-81
2021/04/28 10:36:10;;;;;;;1.35;0.50;;;22.00;38.50;;;;;;4996746;28;20165;-81
2021/04/28 10:38:36;;;;;;;2.28;0.95;;;22.00;38.60;;;;;;5011581;28;20022;-83
2021/04/28 10:41:02;;;;;;;13.55;0.85;;;22.10;38.60;;;;;;5035030;28;20490;-82
2021/04/28 10:43:34;;;;;;;2.90;0.88;;;22.10;38.60;;;;;;5008117;28;20030;-78
2021/04/28 10:46:19;;;;;;;5.55;0.98;;;22.10;38.60;;;;;;5011944;28;20406;-81
2021/04/28 10:48:46;;;;;;;2.55;0.95;;;22.10;38.70;;;;;;5010049;28;20026;-80
2021/04/28 10:51:33;;;;;;;2.05;0.70;;;22.20;38.70;;;;;;4993117;28;20045;-81
2021/04/28 10:54:29;;;;;;;1.90;0.47;;;22.20;38.70;;;;;;5028004;28;20034;-81
2021/04/28 10:57:00;;;;;;;1.60;0.50;;;22.40;38.60;;;;;;5007772;28;20027;-78
2021/04/28 10:59:42;;;;;;;0.52;0.30;;;22.60;38.30;;;;;;5027280;28;20038;-81
2021/04/28 11:02:12;;;;;;;1.85;0.60;;;22.60;38.00;;;;;;5011686;28;20495;-84
2021/04/28 11:04:38;;;;;;;0.35;0.10;;;22.30;37.90;;;;;;4990362;28;20029;-82
2021/04/28 11:07:04;;;;;;;1.77;0.50;;;22.20;38.10;;;;;;4977928;28;20045;-83
2021/04/28 11:09:30;;;;;;;1.08;0.20;;;22.00;38.00;;;;;;5009530;28;20494;-88
2021/04/28 11:11:58;;;;;;;1.30;0.45;;;21.90;38.10;;;;;;5008971;28;20050;-83
2021/04/28 11:14:29;;;;;;;5.03;0.40;;;21.90;38.20;;;;;;5011938;28;20046;-82
2021/04/28 11:16:59;;;;;;;0.15;0.15;;;22.00;37.80;;;;;;5011319;28;20025;-84
2021/04/28 11:19:36;;;;;;;2.42;0.63;;;21.90;37.50;;;;;;5010841;28;20475;-83
2021/04/28 11:22:21;;;;;;;0.80;0.50;;;21.90;37.60;;;;;;4993014;28;20084;-83
2021/04/28 11:25:16;;;;;;;0.80;0.28;;;21.90;37.40;;;;;;5011533;28;20037;-82
2021/04/28 11:27:45;;;;;;;2.03;0.50;;;21.80;37.30;;;;;;5007035;28;20383;-85
2021/04/28 11:30:32;;;;;;;2.20;0.73;;;22.00;37.20;;;;;;5011141;28;20487;-85
2021/04/28 11:33:09;;;;;;;0.60;0.20;;;22.10;37.10;;;;;;5027023;28;20049;-91
2021/04/28 11:35:37;;;;;;;0.43;0.25;;;22.30;36.90;;;;;;5012668;28;20240;-83
2021/04/28 11:38:13;;;;;;;2.88;0.75;;;22.50;36.70;;;;;;5017535;28;20500;-89
2021/04/28 11:41:00;;;;;;;0.52;0.10;;;22.70;36.50;;;;;;5011366;28;20025;-87
2021/04/28 11:43:26;;;;;;;14.43;0.65;;;22.70;36.10;;;;;;5008653;28;20034;-81
2021/04/28 11:45:53;;;;;;;2.30;0.43;;;22.70;36.20;;;;;;5009745;28;20034;-80
2021/04/28 11:48:23;;;;;;;2.30;0.65;;;22.70;36.30;;;;;;5010350;28;20030;-79
2021/04/28 11:50:54;;;;;;;0.65;0.17;;;22.90;36.20;;;;;;5011399;28;20034;-80
2021/04/28 11:53:21;;;;;;;0.30;0.13;;;23.20;35.90;;;;;;5016452;28;20034;-80
2021/04/28 11:55:47;;;;;;;0.68;0.30;;;23.30;35.70;;;;;;5009655;28;20060;-80
2021/04/28 11:58:26;;;;;;;0.22;0.03;;;23.20;35.60;;;;;;5011568;28;20030;-81
2021/04/28 12:01:17;;;;;;;0.70;0.10;;;23.20;35.80;;;;;;5030512;28;20034;-80
2021/04/28 12:03:53;;;;;;;13.35;0.57;;;23.20;35.80;;;;;;5008623;28;20030;-80
2021/04/28 12:06:32;;;;;;;0.68;0.20;;;23.20;35.80;;;;;;5010577;28;20040;-79
2021/04/28 12:09:26;;;;;;;0.98;0.25;;;23.30;35.60;;;;;;5005792;28;20048;-80
2021/04/28 12:12:14;;;;;;;0.80;0.10;;;23.20;35.40;;;;;;5009227;28;20045;-76
2021/04/28 12:14:48;;;;;;;2.78;0.82;;;23.10;35.50;;;;;;5009423;28;20391;-79
2021/04/28 12:17:39;;;;;;;7.60;0.30;;;23.10;35.70;;;;;;5039001;28;20492;-78
2021/04/28 12:20:07;;;;;;;0.30;0.10;;;23.10;35.60;;;;;;4995830;28;20041;-78
2021/04/28 12:22:33;;;;;;;6.47;0.30;;;23.20;35.60;;;;;;5010034;28;20037;-79
2021/04/28 12:25:02;;;;;;;0.75;0.22;;;23.20;35.60;;;;;;5008991;28;20399;-78
2021/04/28 12:27:29;;;;;;;0.50;0.20;;;23.10;35.60;;;;;;5009052;28;20065;-78
2021/04/28 12:30:05;;;;;;;0.55;0.35;;;22.80;35.70;;;;;;5008045;28;20030;-79
2021/04/28 12:32:36;;;;;;;2.22;0.20;;;22.40;36.00;;;;;;5008276;28;20030;-80
2021/04/28 12:35:19;;;;;;;;;;;22.10;36.50;;;;;;5012460;28;20387;-79
2021/04/28 12:38:16;;;;;;;0.63;0.00;;;21.90;36.70;;;;;;5009699;28;20282;-80
2021/04/28 12:40:49;;;;;;;0.98;0.28;;;21.70;36.80;;;;;;4987903;28;20038;-78
2021/04/28 12:43:19;;;;;;;1.35;0.32;;;21.60;36.80;;;;;;5007546;28;20034;-78
2021/04/28 12:45:45;;;;;;;1.13;0.30;;;21.70;36.80;;;;;;4975129;28;20524;-77
2021/04/28 12:48:16;;;;;;;0.10;0.00;;;21.70;36.70;;;;;;4991706;28;20030;-79
2021/04/28 12:50:44;;;;;;;0.60;0.25;;;21.80;36.60;;;;;;5008148;28;20364;-78
2021/04/28 12:53:12;;;;;;;0.40;0.10;;;21.90;36.50;;;;;;5033546;28;20033;-78
2021/04/28 12:55:43;;;;;;;0.45;0.08;;;21.90;36.40;;;;;;5006860;28;20033;-78